Time;durP1;ratioP1;P1;durP2;ratioP2;P2;SDS_P1;SDS_P2;PMS_P1;PMS_P2;Temp;Humidity;BMP_temperature;BMP_pressure;BME280_temperature;BME280_humidity;BME280_pressure;Samples;Min_cycle;Max_cycle;Signal;HPM_P1;HPM_P2
2023/03/20 00:01:15;;;;;;;20.30;10.88;;;;;;;9.46;69.77;98025.81;5301777;27;20049;-79
2023/03/20 00:03:42;;;;;;;20.85;10.48;;;;;;;8.71;74.11;98026.00;5301300;27;20045;-79
2023/03/20 00:06:18;;;;;;;21.15;10.40;;;;;;;9.09;72.95;98023.81;5282211;27;20069;-79
2023/03/20 00:08:46;;;;;;;23.45;11.38;;;;;;;9.51;70.60;98024.75;5282019;27;20061;-79
2023/03/20 00:11:27;;;;;;;21.92;10.82;;;;;;;9.70;68.93;98021.47;5301376;27;20053;-79
2023/03/20 00:14:08;;;;;;;21.77;10.30;;;;;;;9.88;67.50;98019.87;5301688;27;20045;-79
2023/03/20 00:16:37;;;;;;;23.52;10.85;;;;;;;10.08;65.87;98027.63;5301628;27;20061;-79
2023/03/20 00:19:05;;;;;;;23.83;11.15;;;;;;;10.09;65.30;98027.56;5300897;27;20110;-79
2023/03/20 00:21:33;;;;;;;22.30;10.43;;;;;;;10.35;64.04;98028.28;5301609;27;20391;-79
2023/03/20 00:24:00;;;;;;;21.48;10.73;;;;;;;10.32;64.33;98025.84;5301151;27;20388;-79
2023/03/20 00:26:32;;;;;;;21.42;10.60;;;;;;;9.95;65.71;98027.31;5301505;27;20058;-79
2023/03/20 00:29:00;;;;;;;24.48;10.95;;;;;;;9.45;68.03;98030.12;5281865;27;20060;-79
2023/03/20 00:31:32;;;;;;;21.20;10.77;;;;;;;9.48;67.43;98030.03;5301061;27;20103;-79
2023/03/20 00:34:02;;;;;;;21.52;10.43;;;;;;;9.38;67.72;98027.87;5301557;27;20045;-79
2023/03/20 00:36:29;;;;;;;21.05;10.45;;;;;;;9.67;66.39;98022.41;5301464;27;20061;-79
2023/03/20 00:38:56;;;;;;;22.05;10.68;;;;;;;9.70;65.82;98019.72;5300739;27;20062;-79
2023/03/20 00:41:30;;;;;;;22.50;10.45;;;;;;;9.67;66.49;98016.41;5301494;27;20048;-79
2023/03/20 00:44:01;;;;;;;23.27;11.23;;;;;;;9.81;65.73;98016.72;5301414;27;20045;-79
2023/03/20 00:46:31;;;;;;;22.25;10.32;;;;;;;9.80;64.89;98017.63;5281703;27;20075;-79
2023/03/20 00:48:58;;;;;;;23.52;10.80;;;;;;;9.94;63.98;98023.03;5281567;27;20122;-79
2023/03/20 00:51:24;;;;;;;;;;;;;;;9.85;64.28;98021.66;5301558;27;20044;-79
2023/03/20 00:53:51;;;;;;;21.05;10.20;;;;;;;9.56;65.73;98011.69;5301866;27;20295;-79
2023/03/20 00:56:38;;;;;;;22.20;9.85;;;;;;;9.52;65.56;98005.81;5302448;27;20057;-79
2023/03/20 00:59:06;;;;;;;19.80;9.88;;;;;;;9.21;66.91;98005.31;5301862;27;20068;-79
2023/03/20 01:01:32;;;;;;;19.60;10.13;;;;;;;9.77;64.60;98012.56;5302339;27;20099;-79
2023/03/20 01:03:59;;;;;;;;;;;;;;;10.24;62.29;98008.09;5302717;27;20387;-79
2023/03/20 01:06:27;;;;;;;21.65;9.82;;;;;;;10.17;62.38;98013.53;5302060;27;19971;-79
2023/03/20 01:08:56;;;;;;;21.77;10.88;;;;;;;10.10;62.60;98011.22;5302091;27;20067;-79
2023/03/20 01:11:23;;;;;;;22.83;10.32;;;;;;;9.64;64.13;98013.97;5302333;27;20114;-79
2023/03/20 01:13:51;;;;;;;21.33;10.05;;;;;;;9.63;64.47;98020.00;5301938;27;20115;-79
2023/03/20 01:16:25;;;;;;;18.95;9.38;;;;;;;9.57;64.67;98011.66;5302245;27;20111;-79
2023/03/20 01:18:53;;;;;;;18.77;9.02;;;;;;;10.01;62.95;98005.59;5302072;27;20075;-79
2023/03/20 01:21:20;;;;;;;19.87;9.98;;;;;;;10.27;62.14;97999.38;5301939;27;20090;-79
2023/03/20 01:23:48;;;;;;;18.58;9.65;;;;;;;10.00;62.95;98011.66;5302331;27;20103;-79
2023/03/20 01:26:24;;;;;;;20.00;9.73;;;;;;;9.98;63.10;98011.69;5302286;27;20057;-79
2023/03/20 01:28:51;;;;;;;19.15;9.88;;;;;;;9.74;64.14;98007.53;5301412;27;20061;-79
2023/03/20 01:31:18;;;;;;;19.98;9.90;;;;;;;9.66;64.37;98014.72;5302436;27;20076;-79
2023/03/20 01:33:45;;;;;;;22.17;10.02;;;;;;;9.60;64.58;98004.69;5282924;27;20059;-79
2023/03/20 01:36:14;;;;;;;20.92;10.57;;;;;;;9.84;64.05;98016.59;5301810;27;20067;-79
2023/03/20 01:38:41;;;;;;;19.30;10.00;;;;;;;9.78;63.89;98009.97;5282606;27;20061;-79
2023/03/20 01:41:13;;;;;;;19.37;10.40;;;;;;;9.85;63.59;98010.53;5301887;27;20049;-79
2023/03/20 01:43:40;;;;;;;21.60;10.27;;;;;;;9.28;66.13;98011.94;5302190;27;20045;-79
2023/03/20 01:46:23;;;;;;;21.52;10.13;;;;;;;9.57;65.31;98009.06;5302266;27;20053;-79
2023/03/20 01:48:59;;;;;;;20.05;9.57;;;;;;;9.70;64.56;98006.00;5301486;27;20104;-79
2023/03/20 01:51:28;;;;;;;24.95;10.68;;;;;;;9.88;63.84;98005.25;5302239;27;20053;-79
2023/03/20 01:53:59;;;;;;;20.10;10.00;;;;;;;10.01;62.76;98006.44;5302192;27;20045;-79
2023/03/20 01:56:29;;;;;;;20.27;9.88;;;;;;;9.58;63.97;98007.34;5282463;27;20128;-79
2023/03/20 01:59:00;;;;;;;21.05;9.45;;;;;;;9.74;63.61;98000.66;5282591;27;20065;-79
2023/03/20 02:01:28;;;;;;;20.40;9.95;;;;;;;9.62;64.27;98001.16;5282708;27;20049;-79
2023/03/20 02:03:56;;;;;;;19.60;9.63;;;;;;;9.18;65.76;98000.28;5301552;27;20049;-79
2023/03/20 02:06:24;;;;;;;19.83;9.52;;;;;;;9.83;63.27;98005.44;5302195;27;20118;-79
2023/03/20 02:08:52;;;;;;;27.30;10.15;;;;;;;9.70;63.62;98011.16;5301936;27;20053;-79
2023/03/20 02:11:24;;;;;;;19.02;10.07;;;;;;;9.76;63.46;98011.72;5282286;27;20072;-79
2023/03/20 02:13:52;;;;;;;21.80;10.18;;;;;;;9.56;64.56;98009.94;5302343;27;20044;-79
2023/03/20 02:16:19;;;;;;;21.48;9.68;;;;;;;9.69;63.30;98009.47;5282238;27;20130;-79
2023/03/20 02:18:48;;;;;;;18.77;9.82;;;;;;;9.48;64.02;98009.44;5301931;27;20052;-79
2023/03/20 02:21:27;;;;;;;20.15;10.05;;;;;;;9.38;63.81;98010.69;5302192;27;20049;-79
2023/03/20 02:24:14;;;;;;;21.45;9.63;;;;;;;9.72;62.58;97999.88;5301838;27;20052;-79
2023/03/20 02:26:45;;;;;;;19.92;9.02;;;;;;;9.27;64.74;98000.78;5302092;27;20064;-79
2023/03/20 02:29:34;;;;;;;19.27;9.63;;;;;;;9.37;64.75;98000.44;5302094;27;20065;-79
2023/03/20 02:32:10;;;;;;;18.70;9.30;;;;;;;8.67;67.71;98011.59;5301676;27;20760;-79
2023/03/20 02:35:16;;;;;;;20.33;9.82;;;;;;;8.61;69.04;98010.09;5302386;27;20099;-79
2023/03/20 02:37:48;;;;;;;17.55;8.55;;;;;;;8.63;69.52;98010.88;5276030;27;20065;-79
2023/03/20 02:40:37;;;;;;;21.17;9.32;;;;;;;8.42;70.49;98009.06;5302066;27;20061;-79
2023/03/20 02:43:17;;;;;;;19.45;9.38;;;;;;;8.39;71.07;98004.84;5301972;27;20111;-79
2023/03/20 02:45:49;;;;;;;22.25;9.20;;;;;;;8.54;70.64;98011.19;5301750;27;20049;-79
2023/03/20 02:48:31;;;;;;;21.40;9.73;;;;;;;8.47;70.42;98009.72;5282175;27;20136;-79
2023/03/20 02:51:19;;;;;;;18.30;8.80;;;;;;;8.75;68.93;98011.34;5302036;27;20062;-79
2023/03/20 02:54:21;;;;;;;18.40;8.88;;;;;;;8.81;68.29;98008.53;5302142;27;20053;-79
2023/03/20 02:57:11;;;;;;;18.80;8.82;;;;;;;8.90;68.10;98000.47;5282619;27;20050;-79
2023/03/20 02:59:45;;;;;;;19.77;9.40;;;;;;;8.62;69.10;98000.66;5301548;27;20564;-79
2023/03/20 03:02:16;;;;;;;18.92;8.75;;;;;;;8.69;68.75;98012.37;5282730;27;20065;-79
2023/03/20 03:04:52;;;;;;;20.37;9.95;;;;;;;8.65;68.85;98009.09;5282713;27;20072;-79
2023/03/20 03:07:22;;;;;;;19.17;9.00;;;;;;;8.88;68.17;98007.41;5282057;27;20053;-79
2023/03/20 03:10:23;;;;;;;19.17;9.10;;;;;;;9.27;65.73;98013.66;5282278;27;20122;-79
2023/03/20 03:12:51;;;;;;;21.83;9.18;;;;;;;9.48;64.60;98008.59;5277326;27;20056;-79
2023/03/20 03:15:31;;;;;;;18.27;8.63;;;;;;;9.50;63.67;98002.47;5301702;27;20438;-79
2023/03/20 03:18:00;;;;;;;17.58;9.02;;;;;;;9.22;64.54;98007.84;5282150;27;20049;-79
2023/03/20 03:20:31;;;;;;;18.37;9.27;;;;;;;9.17;64.49;98011.50;5282071;27;20103;-79
2023/03/20 03:22:58;;;;;;;19.73;9.55;;;;;;;9.03;65.33;98013.72;5282713;27;20065;-79
2023/03/20 03:25:28;;;;;;;19.87;9.55;;;;;;;9.00;65.56;98019.81;5301869;27;20052;-79
2023/03/20 03:28:31;;;;;;;18.92;8.82;;;;;;;8.85;66.18;98015.25;5281855;27;20049;-79
2023/03/20 03:30:59;;;;;;;26.10;9.73;;;;;;;9.24;64.59;98010.34;5255525;27;20432;-79
2023/03/20 03:33:30;;;;;;;20.40;9.15;;;;;;;9.01;65.54;98018.09;5301483;27;20440;-79
2023/03/20 03:36:10;;;;;;;18.20;8.68;;;;;;;8.65;67.13;98014.22;5301894;27;20048;-79
2023/03/20 03:38:44;;;;;;;20.23;9.93;;;;;;;8.78;67.45;98024.91;5301768;27;20060;-79
2023/03/20 03:41:32;;;;;;;20.30;9.00;;;;;;;8.35;68.86;98010.16;5301569;27;20463;-79
2023/03/20 03:44:07;;;;;;;19.60;9.05;;;;;;;8.56;68.27;98006.84;5301725;27;20061;-79
2023/03/20 03:46:43;;;;;;;19.62;8.93;;;;;;;8.59;68.05;98019.56;5282322;27;20053;-79
2023/03/20 03:49:15;;;;;;;18.10;8.70;;;;;;;9.03;65.94;98014.56;5301039;27;20069;-79
2023/03/20 03:51:44;;;;;;;17.12;8.32;;;;;;;8.80;66.87;98015.41;5301751;27;20069;-79
2023/03/20 03:54:29;;;;;;;20.35;8.27;;;;;;;9.16;66.07;98023.53;5301698;27;20056;-79
2023/03/20 03:56:56;;;;;;;19.62;8.77;;;;;;;9.11;66.79;98025.41;5301679;27;20049;-79
2023/03/20 03:59:34;;;;;;;17.35;7.80;;;;;;;9.04;67.01;98020.53;5282074;27;20056;-79
2023/03/20 04:02:02;;;;;;;16.60;7.65;;;;;;;9.21;66.03;98028.50;5301396;27;20065;-79
2023/03/20 04:04:31;;;;;;;18.08;8.50;;;;;;;9.26;65.35;98027.44;5301703;27;20321;-79
2023/03/20 04:06:58;;;;;;;17.00;7.93;;;;;;;9.16;66.07;98028.69;5282290;27;20095;-79
2023/03/20 04:09:25;;;;;;;16.62;7.85;;;;;;;9.09;66.16;98029.78;5301072;27;20048;-79
2023/03/20 04:11:52;;;;;;;;;;;;;;;9.01;66.54;98031.78;5301780;27;20061;-79
2023/03/20 04:14:19;;;;;;;19.12;9.20;;;;;;;9.00;66.40;98022.41;5300340;27;20022;-79
2023/03/20 04:16:46;;;;;;;18.25;8.63;;;;;;;9.10;65.79;98026.31;5301177;27;20408;-79
2023/03/20 04:19:13;;;;;;;20.83;8.93;;;;;;;9.66;63.64;98025.03;5301305;27;20050;-79
2023/03/20 04:21:40;;;;;;;17.65;8.65;;;;;;;9.78;61.62;98029.69;5301678;27;20112;-79
2023/03/20 04:24:06;;;;;;;;;;;;;;;10.16;59.91;98017.84;5301625;27;20056;-79
2023/03/20 04:26:33;;;;;;;15.07;7.47;;;;;;;10.02;60.21;98025.31;5282129;27;19960;-79
2023/03/20 04:29:00;;;;;;;19.05;8.48;;;;;;;9.79;60.82;98028.84;5302053;27;20087;-79
2023/03/20 04:31:27;;;;;;;;;;;;;;;9.93;60.29;98021.38;5302347;27;20061;-79
2023/03/20 04:33:54;;;;;;;19.62;8.70;;;;;;;9.71;60.74;98021.41;5302606;27;19967;-79
2023/03/20 04:36:21;;;;;;;;;;;;;;;9.70;60.87;98030.03;5302902;27;20384;-78
2023/03/20 04:38:48;;;;;;;18.98;8.82;;;;;;;9.58;61.33;98030.50;5300455;27;19964;-79
2023/03/20 04:41:15;;;;;;;17.80;8.85;;;;;;;9.55;60.82;98034.03;5302585;27;20066;-79
2023/03/20 04:43:42;;;;;;;20.37;9.35;;;;;;;9.38;61.51;98040.75;5302075;27;20060;-79
2023/03/20 04:46:09;;;;;;;;;;;;;;;9.09;62.55;98034.09;5302746;27;20399;-79
2023/03/20 04:48:36;;;;;;;17.98;7.72;;;;;;;9.47;61.14;98037.81;5301442;27;19959;-79
2023/03/20 04:51:03;;;;;;;;;;;;;;;9.72;59.81;98043.69;5301286;27;20115;-79
2023/03/20 04:53:29;;;;;;;18.62;9.07;;;;;;;9.69;59.76;98046.38;5301551;27;19968;-79
2023/03/20 04:55:56;;;;;;;17.85;9.13;;;;;;;9.19;61.06;98043.16;5301369;27;20057;-79
2023/03/20 04:58:27;;;;;;;18.15;9.98;;;;;;;9.07;61.77;98054.75;5300814;27;20069;-79
2023/03/20 05:00:54;;;;;;;;;;;;;;;9.04;61.83;98047.16;5301700;27;20076;-79
2023/03/20 05:03:21;;;;;;;19.77;9.73;;;;;;;8.67;63.03;98053.59;5282056;27;19987;-79
2023/03/20 05:05:49;;;;;;;19.65;9.30;;;;;;;9.05;61.83;98061.69;5300875;27;20062;-79
2023/03/20 05:08:16;;;;;;;22.70;9.70;;;;;;;8.51;63.46;98069.62;5301083;27;20045;-79
2023/03/20 05:10:43;;;;;;;;;;;;;;;8.42;64.15;98073.34;5301565;27;20057;-79
2023/03/20 05:13:10;;;;;;;20.10;9.25;;;;;;;8.83;62.73;98074.50;5300957;27;20428;-79
2023/03/20 05:15:37;;;;;;;20.45;9.45;;;;;;;8.45;63.86;98080.09;5301257;27;20450;-79
2023/03/20 05:18:03;;;;;;;;;;;;;;;8.97;62.17;98076.56;5301284;27;20500;-79
2023/03/20 05:20:31;;;;;;;20.10;9.15;;;;;;;9.12;60.76;98081.16;5300950;27;19968;-79
2023/03/20 05:22:58;;;;;;;19.48;9.52;;;;;;;9.31;60.18;98073.59;5301212;27;20067;-79
2023/03/20 05:25:25;;;;;;;19.98;9.63;;;;;;;9.32;59.43;98083.00;5301174;27;20570;-79
2023/03/20 05:27:51;;;;;;;;;;;;;;;9.05;60.37;98084.03;5300890;27;20053;-79
2023/03/20 05:30:18;;;;;;;18.98;9.30;;;;;;;8.92;60.64;98076.72;5301158;27;19964;-79
2023/03/20 05:32:48;;;;;;;19.90;9.43;;;;;;;8.87;61.19;98078.63;5300832;27;20060;-79
2023/03/20 05:35:15;;;;;;;18.48;8.65;;;;;;;9.24;59.77;98085.00;5301338;27;20045;-79
2023/03/20 05:37:42;;;;;;;18.50;9.23;;;;;;;9.15;59.82;98083.62;5300871;27;20041;-79
2023/03/20 05:40:13;;;;;;;;;;;;;;;8.53;63.38;98090.97;5300615;27;20057;-79
2023/03/20 05:42:40;;;;;;;19.52;9.23;;;;;;;9.07;61.10;98092.50;5281825;27;19968;-79
2023/03/20 05:45:07;;;;;;;21.20;10.07;;;;;;;9.62;59.41;98093.03;5281565;27;20067;-79
2023/03/20 05:47:35;;;;;;;17.80;8.57;;;;;;;9.64;59.57;98099.81;5291952;27;227427;-79
2023/03/20 05:50:02;;;;;;;16.77;8.73;;;;;;;9.47;59.85;98097.88;5302136;27;20060;-79
2023/03/20 05:52:29;;;;;;;20.05;8.90;;;;;;;9.79;59.20;98098.41;5282748;27;20061;-79
2023/03/20 05:54:56;;;;;;;20.92;8.45;;;;;;;9.84;58.81;98092.16;5301757;27;20117;-79
2023/03/20 05:57:23;;;;;;;;;;;;;;;9.94;59.26;98094.38;5302323;27;20049;-79
2023/03/20 05:59:50;;;;;;;19.62;9.10;;;;;;;10.23;58.89;98094.09;5302250;27;20417;-79
2023/03/20 06:02:17;;;;;;;;;;;;;;;10.52;58.62;98100.63;5302279;27;20057;-79
2023/03/20 06:04:44;;;;;;;19.73;10.13;;;;;;;11.16;56.51;98095.25;5302316;27;19964;-79
2023/03/20 06:07:11;;;;;;;20.12;8.75;;;;;;;11.86;53.69;98094.69;5302051;27;20061;-79
2023/03/20 06:09:37;;;;;;;18.15;8.45;;;;;;;12.41;51.82;98107.53;5301478;27;20359;-79
2023/03/20 06:12:05;;;;;;;19.73;9.55;;;;;;;12.92;50.57;98102.41;5302184;27;20115;-79
2023/03/20 06:14:32;;;;;;;19.27;9.45;;;;;;;13.29;49.75;98099.62;5282733;27;20072;-79
2023/03/20 06:16:59;;;;;;;17.23;8.48;;;;;;;14.05;48.06;98104.16;5301617;27;20065;-79
2023/03/20 06:19:26;;;;;;;17.40;8.30;;;;;;;14.43;45.43;98104.56;5301864;27;20065;-80
2023/03/20 06:21:53;;;;;;;18.37;9.35;;;;;;;14.85;44.67;98108.25;5301803;27;20084;-79
2023/03/20 06:24:20;;;;;;;18.37;8.88;;;;;;;14.87;44.90;98112.41;5302069;27;20076;-79
2023/03/20 06:26:47;;;;;;;19.25;9.15;;;;;;;15.47;43.47;98101.03;5301608;27;20053;-80
2023/03/20 06:29:14;;;;;;;17.55;8.52;;;;;;;15.03;43.33;98108.00;5300242;27;20124;-81
2023/03/20 06:31:41;;;;;;;17.87;8.65;;;;;;;14.98;43.93;98106.56;5301662;27;20067;-82
2023/03/20 06:34:08;;;;;;;18.40;9.15;;;;;;;15.02;44.09;98106.31;5301859;27;20108;-82
2023/03/20 06:36:35;;;;;;;20.73;9.23;;;;;;;15.37;43.31;98105.09;5301623;27;20384;-82
2023/03/20 06:39:20;;;;;;;18.42;8.85;;;;;;;15.73;42.11;98108.06;5301175;27;20065;-82
2023/03/20 06:41:47;;;;;;;18.17;9.27;;;;;;;15.75;41.55;98116.63;5302650;27;20110;-81
2023/03/20 06:44:14;;;;;;;17.02;8.43;;;;;;;15.12;42.88;98117.00;5301815;27;20057;-80
2023/03/20 06:46:41;;;;;;;18.80;9.15;;;;;;;14.97;43.42;98115.31;5302223;27;20108;-80
2023/03/20 06:49:08;;;;;;;17.10;8.55;;;;;;;15.51;41.61;98118.09;5301663;27;20057;-81
2023/03/20 06:51:36;;;;;;;17.65;8.90;;;;;;;15.71;40.92;98124.69;5300960;27;20062;-81
2023/03/20 06:54:03;;;;;;;16.20;8.07;;;;;;;16.15;39.75;98134.91;5302095;27;20049;-82
2023/03/20 06:56:31;;;;;;;15.95;8.30;;;;;;;16.32;39.68;98126.84;5302416;27;20391;-81
2023/03/20 06:58:58;;;;;;;21.67;8.98;;;;;;;16.09;39.61;98128.34;5302238;27;20056;-81
2023/03/20 07:01:25;;;;;;;19.30;9.10;;;;;;;16.02;40.11;98128.81;5302226;27;20036;-81
2023/03/20 07:03:52;;;;;;;16.95;8.15;;;;;;;16.26;40.17;98131.59;5300293;27;20049;-80
2023/03/20 07:06:19;;;;;;;17.25;8.13;;;;;;;16.66;39.53;98132.47;5301931;27;20104;-81
2023/03/20 07:08:46;;;;;;;16.45;8.52;;;;;;;16.99;38.70;98132.84;5301492;27;20064;-81
2023/03/20 07:11:13;;;;;;;16.80;7.72;;;;;;;17.43;37.90;98131.56;5301274;27;20102;-79
2023/03/20 07:13:40;;;;;;;16.48;7.95;;;;;;;17.90;36.89;98136.13;5301061;27;20065;-80
2023/03/20 07:16:07;;;;;;;17.45;8.05;;;;;;;17.35;38.22;98133.91;5301432;27;20045;-81
2023/03/20 07:18:34;;;;;;;16.17;8.10;;;;;;;17.69;36.75;98126.34;5301111;27;20400;-81
2023/03/20 07:21:04;;;;;;;17.50;8.57;;;;;;;17.51;37.55;98129.28;5301509;27;20072;-83
2023/03/20 07:23:33;;;;;;;17.90;7.95;;;;;;;17.74;36.28;98126.87;5302810;27;20063;-85
2023/03/20 07:26:00;;;;;;;16.42;7.85;;;;;;;18.00;36.82;98136.31;5301869;27;20045;-83
2023/03/20 07:28:27;;;;;;;17.00;8.27;;;;;;;17.67;36.66;98128.22;5302829;27;20065;-81
2023/03/20 07:30:54;;;;;;;17.87;8.07;;;;;;;16.85;37.69;98134.72;5301809;27;20098;-83
2023/03/20 07:33:21;;;;;;;19.08;7.97;;;;;;;16.29;38.48;98134.88;5301126;27;20049;-84
2023/03/20 07:35:52;;;;;;;17.58;8.27;;;;;;;16.55;38.64;98142.75;5301551;27;20052;-85
2023/03/20 07:38:38;;;;;;;17.77;7.85;;;;;;;16.32;38.28;98134.66;5301181;27;20061;-83
2023/03/20 07:41:05;;;;;;;17.33;8.43;;;;;;;16.07;38.76;98137.19;5281549;27;20471;-84
2023/03/20 07:43:32;;;;;;;16.85;8.48;;;;;;;15.11;40.82;98137.88;5301637;27;20112;-83
2023/03/20 07:46:04;;;;;;;18.30;8.18;;;;;;;15.01;41.31;98143.63;5301276;27;20021;-83
2023/03/20 07:48:31;;;;;;;19.30;8.00;;;;;;;15.50;40.86;98139.81;5300795;27;20408;-84
2023/03/20 07:50:58;;;;;;;19.67;8.30;;;;;;;15.32;40.53;98141.81;5301145;27;20057;-83
2023/03/20 07:53:25;;;;;;;17.02;8.50;;;;;;;15.20;41.89;98145.09;5301022;27;20073;-83
2023/03/20 07:55:53;;;;;;;16.65;7.57;;;;;;;15.49;40.65;98148.56;5301417;27;20392;-84
2023/03/20 07:58:20;;;;;;;17.00;7.70;;;;;;;15.49;40.52;98148.56;5301281;27;20402;-84
2023/03/20 08:00:47;;;;;;;17.23;7.90;;;;;;;16.07;39.45;98152.78;5300729;27;20060;-84
2023/03/20 08:03:14;;;;;;;17.17;8.15;;;;;;;15.96;40.61;98155.25;5302968;27;20045;-84
2023/03/20 08:05:42;;;;;;;17.08;8.05;;;;;;;16.51;38.93;98156.91;5303699;27;20056;-83
2023/03/20 08:08:13;;;;;;;18.17;8.95;;;;;;;16.88;37.96;98157.97;5303454;27;20065;-83
2023/03/20 08:10:40;;;;;;;17.45;8.30;;;;;;;16.59;38.46;98162.44;5303675;27;20117;-83
2023/03/20 08:13:07;;;;;;;17.10;8.73;;;;;;;16.58;39.21;98161.59;5303836;27;20052;-84
2023/03/20 08:15:34;;;;;;;21.70;9.40;;;;;;;16.43;38.26;98160.00;5303360;27;20497;-84
2023/03/20 08:18:01;;;;;;;19.98;9.05;;;;;;;16.28;39.58;98161.84;5303622;27;20691;-83
2023/03/20 08:20:29;;;;;;;20.15;9.75;;;;;;;16.95;38.26;98164.44;5303836;27;20061;-84
2023/03/20 08:22:56;;;;;;;20.80;9.52;;;;;;;16.78;38.19;98160.34;5303548;27;20057;-83
2023/03/20 08:25:23;;;;;;;22.77;9.95;;;;;;;16.11;40.18;98159.47;5284715;27;20399;-82
2023/03/20 08:27:50;;;;;;;21.37;10.65;;;;;;;16.84;39.37;98156.50;5303960;27;20060;-84
2023/03/20 08:30:17;;;;;;;18.85;8.95;;;;;;;17.06;38.43;98162.78;5303131;27;20093;-83
2023/03/20 08:32:44;;;;;;;20.58;9.55;;;;;;;16.76;38.40;98165.66;5303465;27;20049;-83
2023/03/20 08:35:11;;;;;;;19.65;9.38;;;;;;;16.90;38.69;98162.13;5303162;27;20061;-83
2023/03/20 08:37:58;;;;;;;20.95;10.00;;;;;;;16.30;39.65;98169.56;5287280;27;20040;-82
2023/03/20 08:40:24;;;;;;;19.70;10.57;;;;;;;16.93;38.46;98169.75;5302804;27;20072;-82
2023/03/20 08:42:51;;;;;;;20.27;10.18;;;;;;;17.48;37.80;98176.44;5303556;27;20049;-81
2023/03/20 08:45:18;;;;;;;23.75;10.25;;;;;;;17.80;36.77;98176.88;5303740;27;20049;-81
2023/03/20 08:47:49;;;;;;;23.40;11.12;;;;;;;17.90;36.96;98177.88;5302969;27;20069;-81
2023/03/20 08:50:16;;;;;;;18.45;10.05;;;;;;;17.49;37.22;98180.72;5302860;27;20062;-82
2023/03/20 08:52:43;;;;;;;20.00;10.50;;;;;;;17.82;37.58;98180.19;5303593;27;20454;-82
2023/03/20 08:55:10;;;;;;;22.27;11.50;;;;;;;18.08;36.04;98185.38;5303094;27;20045;-82
2023/03/20 08:57:37;;;;;;;20.27;9.88;;;;;;;18.37;36.19;98193.72;5303068;27;20065;-83
2023/03/20 09:00:06;;;;;;;22.83;10.82;;;;;;;18.62;35.76;98195.41;5302003;27;20098;-84
2023/03/20 09:02:33;;;;;;;19.30;10.90;;;;;;;18.49;36.11;98198.88;5303767;27;20379;-83
2023/03/20 09:05:00;;;;;;;21.62;10.80;;;;;;;18.93;34.43;98202.69;5303208;27;20383;-82
2023/03/20 09:07:27;;;;;;;19.80;10.50;;;;;;;18.98;34.79;98207.56;5303470;27;20060;-82
2023/03/20 09:09:54;;;;;;;21.87;10.57;;;;;;;19.12;34.02;98199.50;5303134;27;20075;-83
2023/03/20 09:12:21;;;;;;;21.40;10.02;;;;;;;19.27;34.03;98208.84;5301650;27;20473;-82
2023/03/20 09:14:48;;;;;;;19.92;10.40;;;;;;;18.91;34.08;98201.13;5302362;27;20060;-82
2023/03/20 09:17:15;;;;;;;22.87;10.32;;;;;;;18.63;35.35;98210.13;5301812;27;20404;-82
2023/03/20 09:19:43;;;;;;;19.50;10.20;;;;;;;17.47;37.30;98213.91;5302151;27;20065;-82
2023/03/20 09:22:14;;;;;;;19.10;9.85;;;;;;;17.42;36.77;98209.94;5302300;27;20122;-83
2023/03/20 09:24:41;;;;;;;19.27;8.98;;;;;;;17.25;37.20;98205.88;5301468;27;20045;-82
2023/03/20 09:27:14;;;;;;;20.65;9.00;;;;;;;16.89;39.17;98196.09;5302207;27;20071;-83
2023/03/20 09:29:42;;;;;;;18.55;9.30;;;;;;;16.58;38.15;98200.69;5301825;27;20080;-83
2023/03/20 09:32:13;;;;;;;20.60;9.02;;;;;;;16.05;40.47;98201.47;5301858;27;20060;-82
2023/03/20 09:34:40;;;;;;;18.95;9.07;;;;;;;16.39;38.24;98198.44;5302307;27;20056;-81
2023/03/20 09:37:08;;;;;;;17.27;8.35;;;;;;;16.51;39.01;98203.81;5302582;27;20126;-82
2023/03/20 09:39:35;;;;;;;18.60;8.07;;;;;;;16.85;38.20;98205.91;5282209;27;20054;-82
2023/03/20 09:42:24;;;;;;;18.67;8.68;;;;;;;17.39;37.22;98212.75;5302068;27;20100;-82
2023/03/20 09:45:10;;;;;;;26.02;8.32;;;;;;;17.58;37.12;98207.97;5302090;27;20045;-81
2023/03/20 09:47:49;;;;;;;15.82;7.78;;;;;;;16.38;38.99;98209.78;5301385;27;20065;-82
2023/03/20 09:50:23;;;;;;;17.62;8.18;;;;;;;16.79;37.39;98203.69;5282343;27;20111;-82
2023/03/20 09:53:05;;;;;;;17.50;8.45;;;;;;;16.46;37.99;98207.50;5301649;27;20049;-82
2023/03/20 09:55:35;;;;;;;18.50;8.57;;;;;;;16.87;37.43;98211.00;5302231;27;20405;-82
2023/03/20 09:58:20;;;;;;;17.48;8.45;;;;;;;16.91;37.50;98204.69;5282554;27;20454;-81
2023/03/20 10:00:47;;;;;;;17.73;7.85;;;;;;;17.49;37.91;98214.62;5282029;27;20458;-84
2023/03/20 10:03:24;;;;;;;15.35;7.82;;;;;;;17.48;37.32;98215.59;5302015;27;20053;-82
2023/03/20 10:05:59;;;;;;;17.05;7.85;;;;;;;17.01;37.45;98206.59;5282842;27;20097;-82
2023/03/20 10:08:29;;;;;;;16.23;8.65;;;;;;;16.54;38.53;98206.19;5301703;27;20075;-82
2023/03/20 10:11:06;;;;;;;19.00;9.30;;;;;;;16.68;39.52;98204.41;5264074;27;20122;-82
2023/03/20 10:13:48;;;;;;;18.62;7.93;;;;;;;16.89;37.78;98201.31;5301125;27;20399;-82
2023/03/20 10:16:52;;;;;;;18.00;8.55;;;;;;;16.84;36.88;98188.59;5302214;27;20040;-82
2023/03/20 10:19:27;;;;;;;18.62;8.88;;;;;;;16.89;37.82;98190.91;5301790;27;20396;-83
2023/03/20 10:22:24;;;;;;;18.15;8.10;;;;;;;16.93;37.63;98195.00;5280656;27;20497;-82
2023/03/20 10:25:00;;;;;;;19.15;8.43;;;;;;;17.19;37.27;98195.84;5302328;27;20074;-83
2023/03/20 10:27:40;;;;;;;18.67;8.40;;;;;;;17.21;37.19;98193.97;5301948;27;20128;-83
2023/03/20 10:30:28;;;;;;;16.87;8.15;;;;;;;17.11;37.25;98187.69;5282876;27;20060;-83
2023/03/20 10:33:07;;;;;;;15.88;7.43;;;;;;;17.62;36.54;98196.38;5302025;27;20064;-83
2023/03/20 10:35:48;;;;;;;17.87;8.38;;;;;;;17.72;35.63;98187.00;5302265;27;20676;-83
2023/03/20 10:38:30;;;;;;;16.83;8.40;;;;;;;17.77;35.92;98192.75;5301794;27;20442;-83
2023/03/20 10:40:58;;;;;;;17.42;8.55;;;;;;;17.84;36.28;98191.34;5302080;27;20098;-83
2023/03/20 10:43:34;;;;;;;20.58;8.88;;;;;;;18.66;34.46;98202.94;5301592;27;20482;-83
2023/03/20 10:46:18;;;;;;;17.75;8.40;;;;;;;18.72;34.32;98196.44;5283464;27;20064;-83
2023/03/20 10:48:49;;;;;;;15.70;7.97;;;;;;;19.14;34.61;98199.38;5263251;27;20030;-83
2023/03/20 10:51:19;;;;;;;15.15;7.37;;;;;;;18.63;34.94;98192.66;5263863;27;20128;-83
2023/03/20 10:53:55;;;;;;;16.23;8.77;;;;;;;18.79;35.59;98195.84;5263613;27;20059;-83
2023/03/20 10:56:35;;;;;;;19.87;9.63;;;;;;;18.61;35.87;98191.09;5264162;27;20157;-84
2023/03/20 10:59:23;;;;;;;19.12;8.95;;;;;;;19.78;33.51;98186.66;5263770;27;20055;-84
2023/03/20 11:01:50;;;;;;;19.00;9.05;;;;;;;19.89;32.66;98192.75;5193804;27;20062;-84
2023/03/20 11:04:17;;;;;;;20.20;8.80;;;;;;;18.60;34.41;98189.44;5192330;27;20059;-84
2023/03/20 11:06:53;;;;;;;19.02;8.45;;;;;;;19.02;35.04;98188.91;5194033;27;20022;-84
2023/03/20 11:09:22;;;;;;;20.50;8.73;;;;;;;20.18;33.97;98187.78;5192724;27;20108;-84
2023/03/20 11:11:54;;;;;;;15.90;8.60;;;;;;;19.64;34.32;98179.87;5193392;27;20027;-85
2023/03/20 11:14:25;;;;;;;16.80;8.68;;;;;;;20.09;32.99;98178.03;5265350;27;20073;-83
2023/03/20 11:16:53;;;;;;;15.95;8.43;;;;;;;18.48;35.34;98181.53;5192071;27;20061;-83
2023/03/20 11:19:22;;;;;;;18.00;8.73;;;;;;;18.88;35.50;98170.81;5262764;27;20074;-84
2023/03/20 11:21:57;;;;;;;19.05;9.00;;;;;;;19.58;34.80;98172.50;5192342;27;20475;-84
2023/03/20 11:24:26;;;;;;;17.52;8.43;;;;;;;20.14;33.63;98169.84;5263437;27;20702;-85
2023/03/20 11:26:54;;;;;;;17.00;8.60;;;;;;;20.14;33.21;98162.81;5191759;27;20054;-83
2023/03/20 11:29:34;;;;;;;16.87;9.07;;;;;;;20.09;32.84;98164.13;5262798;27;20082;-83
2023/03/20 11:32:05;;;;;;;15.75;8.20;;;;;;;20.85;32.19;98173.69;5191696;27;20406;-83
2023/03/20 11:34:36;;;;;;;18.12;8.90;;;;;;;21.26;32.41;98172.84;5191820;27;20114;-83
2023/03/20 11:37:06;;;;;;;18.73;8.60;;;;;;;19.91;32.67;98172.50;5191502;27;20046;-82
2023/03/20 11:39:38;;;;;;;17.45;8.70;;;;;;;20.56;32.41;98162.97;5261561;27;20058;-82
2023/03/20 11:42:24;;;;;;;16.12;7.97;;;;;;;19.74;33.10;98167.75;5261918;27;20460;-83
2023/03/20 11:45:02;;;;;;;17.55;8.25;;;;;;;19.77;33.61;98159.62;5191480;27;20127;-83
2023/03/20 11:47:34;;;;;;;15.88;8.30;;;;;;;19.32;35.57;98156.16;5196692;27;20689;-83
2023/03/20 11:50:03;;;;;;;19.70;8.25;;;;;;;18.95;35.38;98158.94;5283812;27;20055;-83